Time,TemperatureF,DewpointF,PressureIn,WindDirection,WindDirectionDegrees,WindSpeedMPH,WindSpeedGustMPH,Humidity,HourlyPrecipIn,Conditions,Clouds,dailyrainin,SoftwareType,DateUTC
2013-03-01 00:01:00,30.0,21.0,-100.00,NW,320,16.0,17.0,70,-99.99,,,-99.99,,2013-03-01 00:01:00,
2013-03-01 00:11:00,29.0,21.0,-100.00,NNW,330,10.0,11.0,72,-99.99,,,-99.99,,2013-03-01 00:11:00,
2013-03-01 00:22:00,29.0,21.0,-100.00,NNW,330,10.0,11.0,72,-99.99,,,-99.99,,2013-03-01 00:22:00,
2013-03-01 00:32:00,29.0,21.0,-100.00,NNW,335,12.0,15.0,71,-99.99,,,-99.99,,2013-03-01 00:32:00,
2013-03-01 00:42:00,29.0,21.0,-100.00,NNW,335,12.0,15.0,71,-99.99,,,-99.99,,2013-03-01 00:42:00,
2013-03-01 00:51:00,29.0,21.0,-100.00,NW,320,11.0,15.0,71,-99.99,,,-99.99,,2013-03-01 00:51:00,
2013-03-01 01:01:00,29.0,21.0,-100.00,NW,320,11.0,15.0,71,-99.99,,,-99.99,,2013-03-01 01:01:00,
2013-03-01 01:11:00,29.0,20.0,-100.00,NNW,330,11.0,12.0,71,-99.99,,,-99.99,,2013-03-01 01:11:00,
2013-03-01 01:21:00,29.0,20.0,-100.00,NNW,330,11.0,12.0,71,-99.99,,,-99.99,,2013-03-01 01:21:00,
2013-03-01 01:32:00,29.0,21.0,-100.00,NW,325,12.0,16.0,72,-99.99,,,-99.99,,2013-03-01 01:32:00,
2013-03-01 01:42:00,29.0,21.0,-100.00,NW,325,12.0,16.0,72,-99.99,,,-99.99,,2013-03-01 01:42:00,
2013-03-01 01:51:00,28.0,20.0,-100.00,NNW,335,11.0,14.0,72,-99.99,,,-99.99,,2013-03-01 01:51:00,
2013-03-01 02:01:00,28.0,20.0,-100.00,NNW,335,11.0,14.0,72,-99.99,,,-99.99,,2013-03-01 02:01:00,
2013-03-01 02:11:00,28.0,20.0,-100.00,NNW,335,13.0,15.0,72,-99.99,,,-99.99,,2013-03-01 02:11:00,
2013-03-01 02:21:00,28.0,20.0,-100.00,NNW,335,13.0,15.0,72,-99.99,,,-99.99,,2013-03-01 02:21:00,
2013-03-01 02:32:00,28.0,21.0,-100.00,NNW,335,12.0,14.0,73,-99.99,,,-99.99,,2013-03-01 02:32:00,
2013-03-01 02:42:00,28.0,21.0,-100.00,NNW,335,12.0,14.0,73,-99.99,,,-99.99,,2013-03-01 02:42:00,
2013-03-01 02:52:00,28.0,20.0,-100.00,NNW,335,10.0,11.0,73,-99.99,,,-99.99,,2013-03-01 02:52:00,
2013-03-01 03:01:00,28.0,20.0,-100.00,NNW,335,10.0,11.0,73,-99.99,,,-99.99,,2013-03-01 03:01:00,
2013-03-01 03:11:00,28.0,20.0,-100.00,NNW,335,10.0,11.0,73,-99.99,,,-99.99,,2013-03-01 03:11:00,
2013-03-01 03:21:00,28.0,20.0,-100.00,NNW,335,10.0,11.0,73,-99.99,,,-99.99,,2013-03-01 03:21:00,
2013-03-01 03:32:00,28.0,21.0,-100.00,NNW,330,11.0,12.0,75,-99.99,,,-99.99,,2013-03-01 03:32:00,
2013-03-01 03:41:00,28.0,21.0,-100.00,NNW,330,11.0,12.0,75,-99.99,,,-99.99,,2013-03-01 03:41:00,
2013-03-01 03:52:00,28.0,21.0,-100.00,NW,325,14.0,16.0,75,-99.99,,,-99.99,,2013-03-01 03:52:00,
2013-03-01 04:01:00,28.0,21.0,-100.00,NW,325,14.0,16.0,75,-99.99,,,-99.99,,2013-03-01 04:01:00,
2013-03-01 04:11:00,27.0,20.0,-100.00,NNW,335,11.0,12.0,75,-99.99,,,-99.99,,2013-03-01 04:11:00,
2013-03-01 04:21:00,27.0,20.0,-100.00,NNW,335,11.0,12.0,75,-99.99,,,-99.99,,2013-03-01 04:21:00,
2013-03-01 04:32:00,27.0,21.0,-100.00,NW,320,16.0,18.0,77,-99.99,,,-99.99,,2013-03-01 04:32:00,
2013-03-01 04:42:00,27.0,21.0,-100.00,NW,320,16.0,18.0,77,-99.99,,,-99.99,,2013-03-01 04:42:00,
2013-03-01 04:51:00,27.0,21.0,-100.00,NNW,330,12.0,14.0,78,-99.99,,,-99.99,,2013-03-01 04:51:00,
2013-03-01 05:02:00,27.0,21.0,-100.00,NNW,330,12.0,14.0,78,-99.99,,,-99.99,,2013-03-01 05:02:00,
2013-03-01 05:11:00,27.0,21.0,-100.00,NNW,330,10.0,11.0,78,-99.99,,,-99.99,,2013-03-01 05:11:00,
2013-03-01 05:22:00,27.0,21.0,-100.00,NNW,330,8.0,9.0,79,-99.99,,,-99.99,,2013-03-01 05:22:00,
2013-03-01 05:32:00,27.0,21.0,-100.00,NW,325,9.0,11.0,79,-99.99,,,-99.99,,2013-03-01 05:32:00,
2013-03-01 05:42:00,27.0,21.0,-100.00,NW,325,9.0,11.0,79,-99.99,,,-99.99,,2013-03-01 05:42:00,
2013-03-01 05:52:00,27.0,21.0,-100.00,NNW,330,10.0,12.0,79,-99.99,,,-99.99,,2013-03-01 05:52:00,
2013-03-01 06:02:00,27.0,21.0,-100.00,NNW,330,10.0,12.0,79,-99.99,,,-99.99,,2013-03-01 06:02:00,
2013-03-01 06:11:00,27.0,21.0,-100.00,NNW,330,10.0,12.0,79,-99.99,,,-99.99,,2013-03-01 06:11:00,
2013-03-01 06:22:00,27.0,21.0,-100.00,NW,325,9.0,10.0,79,-99.99,,,-99.99,,2013-03-01 06:22:00,
2013-03-01 06:32:00,27.0,21.0,-100.00,NNW,330,9.0,11.0,78,-99.99,,,-99.99,,2013-03-01 06:32:00,
2013-03-01 06:42:00,27.0,21.0,-100.00,NNW,330,9.0,11.0,78,-99.99,,,-99.99,,2013-03-01 06:42:00,
2013-03-01 06:52:00,27.0,21.0,-100.00,NNW,335,9.0,11.0,78,-99.99,,,-99.99,,2013-03-01 06:52:00,
2013-03-01 07:02:00,27.0,21.0,-100.00,NNW,335,9.0,11.0,78,-99.99,,,-99.99,,2013-03-01 07:02:00,
2013-03-01 07:11:00,26.0,21.0,-100.00,NW,320,9.0,10.0,79,-99.99,,,-99.99,,2013-03-01 07:11:00,
2013-03-01 07:22:00,26.0,21.0,-100.00,NW,325,11.0,12.0,79,-99.99,,,-99.99,,2013-03-01 07:22:00,
2013-03-01 07:32:00,26.0,21.0,-100.00,NNW,335,12.0,13.0,80,-99.99,,,-99.99,,2013-03-01 07:32:00,
2013-03-01 07:42:00,26.0,21.0,-100.00,NNW,335,12.0,13.0,80,-99.99,,,-99.99,,2013-03-01 07:42:00,
2013-03-01 07:52:00,26.0,21.0,-100.00,NW,320,10.0,12.0,80,-99.99,,,-99.99,,2013-03-01 07:52:00,
2013-03-01 08:02:00,26.0,21.0,-100.00,NW,320,10.0,12.0,80,-99.99,,,-99.99,,2013-03-01 08:02:00,
2013-03-01 08:11:00,26.0,21.0,-100.00,NW,320,10.0,12.0,80,-99.99,,,-99.99,,2013-03-01 08:11:00,
2013-03-01 08:22:00,26.0,21.0,-100.00,NW,325,9.0,10.0,80,-99.99,,,-99.99,,2013-03-01 08:22:00,
2013-03-01 08:32:00,26.0,21.0,-100.00,NNW,330,8.0,9.0,80,-99.99,,,-99.99,,2013-03-01 08:32:00,
2013-03-01 08:42:00,26.0,21.0,-100.00,NNW,330,8.0,9.0,80,-99.99,,,-99.99,,2013-03-01 08:42:00,
2013-03-01 08:53:00,26.0,21.0,-100.00,NNW,340,9.0,11.0,80,-99.99,,,-99.99,,2013-03-01 08:53:00,
2013-03-01 09:02:00,26.0,21.0,-100.00,NNW,340,9.0,11.0,80,-99.99,,,-99.99,,2013-03-01 09:02:00,
2013-03-01 09:12:00,26.0,21.0,-100.00,NNW,340,9.0,11.0,80,-99.99,,,-99.99,,2013-03-01 09:12:00,
2013-03-01 09:22:00,26.0,21.0,-100.00,NNW,335,9.0,11.0,81,-99.99,,,-99.99,,2013-03-01 09:22:00,
2013-03-01 09:32:00,26.0,21.0,-100.00,NNW,335,9.0,11.0,81,-99.99,,,-99.99,,2013-03-01 09:32:00,
2013-03-01 09:42:00,26.0,21.0,-100.00,NNW,335,9.0,11.0,81,-99.99,,,-99.99,,2013-03-01 09:42:00,
2013-03-01 09:52:00,26.0,21.0,-100.00,NW,325,11.0,13.0,82,-99.99,,,-99.99,,2013-03-01 09:52:00,
2013-03-01 10:02:00,26.0,21.0,-100.00,NW,325,11.0,13.0,82,-99.99,,,-99.99,,2013-03-01 10:02:00,
2013-03-01 10:11:00,26.0,21.0,-100.00,NNW,330,11.0,12.0,82,-99.99,,,-99.99,,2013-03-01 10:11:00,
2013-03-01 10:22:00,26.0,21.0,-100.00,NNW,330,11.0,12.0,82,-99.99,,,-99.99,,2013-03-01 10:22:00,
2013-03-01 10:32:00,26.0,21.0,-100.00,NNW,330,13.0,16.0,83,-99.99,,,-99.99,,2013-03-01 10:32:00,
2013-03-01 10:42:00,26.0,21.0,-100.00,NNW,330,13.0,16.0,83,-99.99,,,-99.99,,2013-03-01 10:42:00,
2013-03-01 10:52:00,25.0,21.0,-100.00,NNW,335,9.0,11.0,83,-99.99,,,-99.99,,2013-03-01 10:52:00,
2013-03-01 11:01:00,25.0,21.0,-100.00,NNW,335,9.0,11.0,83,-99.99,,,-99.99,,2013-03-01 11:01:00,
2013-03-01 11:11:00,25.0,21.0,-100.00,NNW,335,9.0,11.0,83,-99.99,,,-99.99,,2013-03-01 11:11:00,
2013-03-01 11:22:00,25.0,21.0,-100.00,NNW,335,9.0,10.0,84,-99.99,,,-99.99,,2013-03-01 11:22:00,
2013-03-01 11:32:00,25.0,21.0,-100.00,NNW,330,9.0,12.0,83,-99.99,,,-99.99,,2013-03-01 11:32:00,
2013-03-01 11:42:00,25.0,21.0,-100.00,NNW,330,9.0,12.0,83,-99.99,,,-99.99,,2013-03-01 11:42:00,
2013-03-01 11:52:00,25.0,21.0,-100.00,NNW,335,10.0,11.0,83,-99.99,,,-99.99,,2013-03-01 11:52:00,
2013-03-01 12:01:00,25.0,21.0,-100.00,NNW,335,10.0,11.0,83,-99.99,,,-99.99,,2013-03-01 12:01:00,
2013-03-01 12:11:00,25.0,21.0,-100.00,NNW,340,10.0,11.0,83,-99.99,,,-99.99,,2013-03-01 12:11:00,
2013-03-01 12:21:00,25.0,21.0,-100.00,NNW,340,10.0,11.0,83,-99.99,,,-99.99,,2013-03-01 12:21:00,
2013-03-01 12:32:00,25.0,21.0,-100.00,NNW,345,11.0,13.0,83,-99.99,,,-99.99,,2013-03-01 12:32:00,
2013-03-01 12:42:00,25.0,21.0,-100.00,NNW,345,11.0,13.0,83,-99.99,,,-99.99,,2013-03-01 12:42:00,
2013-03-01 12:52:00,25.0,21.0,-100.00,NNW,340,12.0,15.0,83,-99.99,,,-99.99,,2013-03-01 12:52:00,
2013-03-01 13:01:00,25.0,21.0,-100.00,NNW,340,12.0,15.0,83,-99.99,,,-99.99,,2013-03-01 13:01:00,
2013-03-01 13:11:00,25.0,21.0,-100.00,NNW,340,12.0,15.0,83,-99.99,,,-99.99,,2013-03-01 13:11:00,
2013-03-01 13:21:00,25.0,21.0,-100.00,NNW,340,12.0,15.0,83,-99.99,,,-99.99,,2013-03-01 13:21:00,
2013-03-01 13:32:00,25.0,20.0,-100.00,NNW,345,10.0,12.0,82,-99.99,,,-99.99,,2013-03-01 13:32:00,
2013-03-01 13:41:00,25.0,20.0,-100.00,NNW,345,10.0,12.0,82,-99.99,,,-99.99,,2013-03-01 13:41:00,
2013-03-01 13:52:00,25.0,20.0,-100.00,NNW,345,10.0,12.0,82,-99.99,,,-99.99,,2013-03-01 13:52:00,
2013-03-01 14:01:00,25.0,20.0,-100.00,NNW,345,10.0,12.0,82,-99.99,,,-99.99,,2013-03-01 14:01:00,
2013-03-01 14:11:00,25.0,20.0,-100.00,North,350,13.0,16.0,80,-99.99,,,-99.99,,2013-03-01 14:11:00,
2013-03-01 14:21:00,25.0,20.0,-100.00,North,350,11.0,14.0,81,-99.99,,,-99.99,,2013-03-01 14:21:00,
2013-03-01 14:32:00,25.0,20.0,-100.00,North,350,11.0,14.0,81,-99.99,,,-99.99,,2013-03-01 14:32:00,
2013-03-01 14:42:00,25.0,20.0,-100.00,North,350,11.0,14.0,81,-99.99,,,-99.99,,2013-03-01 14:42:00,
2013-03-01 14:52:00,26.0,20.0,-100.00,North,355,11.0,12.0,80,-99.99,,,-99.99,,2013-03-01 14:52:00,
2013-03-01 15:01:00,26.0,20.0,-100.00,North,355,11.0,12.0,80,-99.99,,,-99.99,,2013-03-01 15:01:00,
2013-03-01 15:11:00,26.0,20.0,-100.00,North,355,11.0,12.0,80,-99.99,,,-99.99,,2013-03-01 15:11:00,
2013-03-01 15:21:00,26.0,20.0,-100.00,North,0,12.0,13.0,79,-99.99,,,-99.99,,2013-03-01 15:21:00,
2013-03-01 15:31:00,26.0,20.0,-100.00,North,0,12.0,13.0,79,-99.99,,,-99.99,,2013-03-01 15:31:00,
2013-03-01 15:42:00,26.0,20.0,-100.00,North,0,12.0,13.0,79,-99.99,,,-99.99,,2013-03-01 15:42:00,
2013-03-01 15:52:00,27.0,20.0,-100.00,North,0,12.0,14.0,77,-99.99,,,-99.99,,2013-03-01 15:52:00,
2013-03-01 16:01:00,27.0,20.0,-100.00,North,0,12.0,14.0,77,-99.99,,,-99.99,,2013-03-01 16:01:00,
2013-03-01 16:11:00,27.0,20.0,-100.00,North,0,12.0,14.0,77,-99.99,,,-99.99,,2013-03-01 16:11:00,
2013-03-01 16:21:00,27.0,21.0,-100.00,North,350,9.0,11.0,77,-99.99,,,-99.99,,2013-03-01 16:21:00,
2013-03-01 16:32:00,27.0,20.0,-100.00,North,0,8.0,10.0,75,-99.99,,,-99.99,,2013-03-01 16:32:00,
2013-03-01 16:41:00,27.0,20.0,-100.00,North,0,8.0,10.0,75,-99.99,,,-99.99,,2013-03-01 16:41:00,
2013-03-01 16:52:00,28.0,21.0,-100.00,North,0,7.0,9.0,73,-99.99,,,-99.99,,2013-03-01 16:52:00,
2013-03-01 17:01:00,28.0,21.0,-100.00,North,0,7.0,9.0,73,-99.99,,,-99.99,,2013-03-01 17:01:00,
2013-03-01 17:11:00,28.0,21.0,-100.00,North,0,7.0,9.0,73,-99.99,,,-99.99,,2013-03-01 17:11:00,
2013-03-01 17:21:00,28.0,20.0,-100.00,North,350,9.0,12.0,71,-99.99,,,-99.99,,2013-03-01 17:21:00,
2013-03-01 17:32:00,29.0,20.0,-100.00,North,0,6.0,7.0,70,-99.99,,,-99.99,,2013-03-01 17:32:00,
2013-03-01 17:41:00,29.0,20.0,-100.00,North,0,6.0,7.0,70,-99.99,,,-99.99,,2013-03-01 17:41:00,
2013-03-01 17:52:00,28.0,19.0,-100.00,North,5,12.0,15.0,69,-99.99,,,-99.99,,2013-03-01 17:52:00,
2013-03-01 18:01:00,28.0,19.0,-100.00,North,5,12.0,15.0,69,-99.99,,,-99.99,,2013-03-01 18:01:00,
2013-03-01 18:12:00,29.0,19.0,-100.00,North,0,8.0,10.0,68,-99.99,,,-99.99,,2013-03-01 18:12:00,
2013-03-01 18:22:00,29.0,19.0,-100.00,North,0,8.0,10.0,68,-99.99,,,-99.99,,2013-03-01 18:22:00,
2013-03-01 18:31:00,29.0,19.0,-100.00,North,0,8.0,10.0,68,-99.99,,,-99.99,,2013-03-01 18:31:00,
2013-03-01 18:42:00,29.0,19.0,-100.00,North,0,8.0,10.0,68,-99.99,,,-99.99,,2013-03-01 18:42:00,
2013-03-01 18:52:00,30.0,19.0,-100.00,North,0,8.0,10.0,62,-99.99,,,-99.99,,2013-03-01 18:52:00,
2013-03-01 19:01:00,30.0,19.0,-100.00,North,0,8.0,10.0,62,-99.99,,,-99.99,,2013-03-01 19:01:00,
2013-03-01 19:11:00,30.0,19.0,-100.00,North,0,8.0,10.0,62,-99.99,,,-99.99,,2013-03-01 19:11:00,
2013-03-01 19:21:00,30.0,18.0,-100.00,North,0,8.0,9.0,60,-99.99,,,-99.99,,2013-03-01 19:21:00,
2013-03-01 19:32:00,29.0,15.0,-100.00,NNW,345,16.0,18.0,57,-99.99,,,-99.99,,2013-03-01 19:32:00,
2013-03-01 19:42:00,29.0,15.0,-100.00,NNW,345,16.0,18.0,57,-99.99,,,-99.99,,2013-03-01 19:42:00,
2013-03-01 19:52:00,30.0,15.0,-100.00,North,350,11.0,14.0,55,-99.99,,,-99.99,,2013-03-01 19:52:00,
2013-03-01 20:01:00,30.0,15.0,-100.00,North,350,11.0,14.0,55,-99.99,,,-99.99,,2013-03-01 20:01:00,
2013-03-01 20:11:00,29.0,15.0,-100.00,NE,35,11.0,14.0,55,-99.99,,,-99.99,,2013-03-01 20:11:00,
2013-03-01 20:21:00,29.0,15.0,-100.00,NNE,20,15.0,17.0,55,-99.99,,,-99.99,,2013-03-01 20:21:00,
2013-03-01 20:31:00,29.0,15.0,-100.00,North,5,9.0,11.0,56,-99.99,,,-99.99,,2013-03-01 20:31:00,
2013-03-01 20:42:00,29.0,15.0,-100.00,North,5,9.0,11.0,56,-99.99,,,-99.99,,2013-03-01 20:42:00,
2013-03-01 20:52:00,29.0,14.0,-100.00,NNE,15,12.0,16.0,55,-99.99,,,-99.99,,2013-03-01 20:52:00,
2013-03-01 21:01:00,29.0,14.0,-100.00,NNE,15,12.0,16.0,55,-99.99,,,-99.99,,2013-03-01 21:01:00,
2013-03-01 21:11:00,29.0,14.0,-100.00,North,0,12.0,14.0,55,-99.99,,,-99.99,,2013-03-01 21:11:00,
2013-03-01 21:21:00,28.0,14.0,-100.00,North,0,15.0,16.0,56,-99.99,,,-99.99,,2013-03-01 21:21:00,
2013-03-01 21:32:00,28.0,15.0,-100.00,North,0,9.0,11.0,58,-99.99,,,-99.99,,2013-03-01 21:32:00,
2013-03-01 21:41:00,28.0,15.0,-100.00,North,0,9.0,11.0,58,-99.99,,,-99.99,,2013-03-01 21:41:00,
2013-03-01 21:51:00,28.0,15.0,-100.00,North,0,12.0,14.0,58,-99.99,,,-99.99,,2013-03-01 21:51:00,
2013-03-01 22:01:00,28.0,15.0,-100.00,North,0,12.0,14.0,58,-99.99,,,-99.99,,2013-03-01 22:01:00,
2013-03-01 22:11:00,28.0,15.0,-100.00,North,350,13.0,16.0,58,-99.99,,,-99.99,,2013-03-01 22:11:00,
2013-03-01 22:21:00,28.0,15.0,-100.00,North,5,9.0,9.0,59,-99.99,,,-99.99,,2013-03-01 22:21:00,
2013-03-01 22:31:00,28.0,14.0,-100.00,North,0,11.0,13.0,57,-99.99,,,-99.99,,2013-03-01 22:31:00,
2013-03-01 22:41:00,28.0,14.0,-100.00,North,0,11.0,13.0,57,-99.99,,,-99.99,,2013-03-01 22:41:00,
2013-03-01 22:51:00,28.0,14.0,-100.00,North,0,9.0,14.0,57,-99.99,,,-99.99,,2013-03-01 22:51:00,
2013-03-01 23:01:00,28.0,14.0,-100.00,North,0,9.0,14.0,57,-99.99,,,-99.99,,2013-03-01 23:01:00,
2013-03-01 23:11:00,27.0,14.0,-100.00,North,0,11.0,13.0,57,-99.99,,,-99.99,,2013-03-01 23:11:00,
2013-03-01 23:21:00,27.0,14.0,-100.00,NNE,20,11.0,13.0,59,-99.99,,,-99.99,,2013-03-01 23:21:00,
2013-03-01 23:31:00,27.0,14.0,-100.00,North,355,11.0,12.0,59,-99.99,,,-99.99,,2013-03-01 23:31:00,
2013-03-01 23:41:00,27.0,14.0,-100.00,North,355,11.0,12.0,59,-99.99,,,-99.99,,2013-03-01 23:41:00,
2013-03-01 23:52:00,26.0,14.0,-100.00,NNE,30,8.0,11.0,60,-99.99,,,-99.99,,2013-03-01 23:52:00,